createdAt,value
2019-05-10T00:02:04.387Z,2.00
2019-05-10T00:04:54.054Z,2.77
2019-05-10T00:07:41.962Z,2.10
2019-05-10T00:10:12.034Z,2.57
2019-05-10T00:12:49.700Z,2.30
2019-05-10T00:15:21.782Z,2.20
2019-05-10T00:17:53.873Z,2.13
2019-05-10T00:20:24.340Z,2.60
2019-05-10T00:22:54.788Z,2.60
2019-05-10T00:25:25.276Z,2.37
2019-05-10T00:27:55.713Z,3.63
2019-05-10T00:30:26.140Z,2.73
2019-05-10T00:32:56.566Z,2.80
2019-05-10T00:35:26.967Z,2.77
2019-05-10T00:37:57.424Z,2.43
2019-05-10T00:40:27.842Z,2.60
2019-05-10T00:42:58.259Z,2.77
2019-05-10T00:45:28.692Z,3.07
2019-05-10T00:47:59.388Z,3.10
2019-05-10T00:50:30.034Z,2.80
2019-05-10T00:53:00.479Z,3.13
2019-05-10T00:55:30.895Z,2.73
2019-05-10T00:58:01.310Z,2.93
2019-05-10T01:00:31.742Z,2.67
2019-05-10T01:03:02.158Z,2.93
2019-05-10T01:05:32.583Z,2.80
2019-05-10T01:08:03.026Z,3.20
2019-05-10T01:10:33.619Z,2.90
2019-05-10T01:13:04.039Z,3.63
2019-05-10T01:15:34.502Z,3.00
2019-05-10T01:18:04.976Z,3.27
2019-05-10T01:20:35.410Z,3.20
2019-05-10T01:23:05.814Z,3.97
2019-05-10T01:25:36.247Z,3.93
2019-05-10T01:28:06.756Z,3.90
2019-05-10T01:30:37.197Z,3.50
2019-05-10T01:33:07.649Z,3.50
2019-05-10T01:35:38.046Z,4.10
2019-05-10T01:38:08.464Z,3.77
2019-05-10T01:40:38.879Z,3.40
2019-05-10T01:43:09.322Z,3.40
2019-05-10T01:45:39.722Z,3.30
2019-05-10T01:48:10.167Z,3.60
2019-05-10T01:50:40.572Z,2.90
2019-05-10T01:53:10.995Z,3.50
2019-05-10T01:55:51.385Z,2.63
2019-05-10T01:58:13.516Z,2.70
2019-05-10T02:00:43.957Z,3.20
2019-05-10T02:03:14.367Z,3.70
2019-05-10T02:05:44.785Z,3.37
2019-05-10T02:08:15.249Z,3.20
2019-05-10T02:10:46.045Z,3.23
2019-05-10T02:13:16.474Z,3.70
2019-05-10T02:15:46.946Z,3.57
2019-05-10T02:18:17.394Z,3.17
2019-05-10T02:20:48.397Z,3.20
2019-05-10T02:23:18.925Z,3.40
2019-05-10T02:25:49.377Z,3.40
2019-05-10T02:28:19.823Z,3.40
2019-05-10T02:30:50.451Z,3.30
2019-05-10T02:33:21.080Z,3.30
2019-05-10T02:35:51.554Z,3.40
2019-05-10T02:38:22.700Z,3.50
2019-05-10T02:40:53.212Z,4.20
2019-05-10T02:43:23.716Z,3.37
2019-05-10T02:45:54.422Z,3.43
2019-05-10T02:48:24.819Z,3.70
2019-05-10T02:50:57.083Z,3.63
2019-05-10T02:53:30.168Z,4.03
2019-05-10T02:56:02.237Z,3.60
2019-05-10T02:58:34.125Z,3.27
2019-05-10T03:01:08.213Z,3.70
2019-05-10T03:03:42.145Z,3.40
2019-05-10T03:06:17.827Z,3.57
2019-05-10T03:08:51.780Z,3.53
2019-05-10T03:11:22.203Z,3.90
2019-05-10T03:13:53.563Z,4.23
2019-05-10T03:16:24.275Z,4.43
2019-05-10T03:18:54.884Z,3.47
2019-05-10T03:21:28.568Z,4.03
2019-05-10T03:23:59.128Z,4.27
2019-05-10T03:26:40.789Z,4.83
2019-05-10T03:29:02.876Z,4.30
2019-05-10T03:31:34.045Z,4.17
2019-05-10T03:34:04.578Z,4.53
2019-05-10T03:36:35.165Z,4.73
2019-05-10T03:39:07.244Z,4.10
2019-05-10T03:41:37.737Z,4.40
2019-05-10T03:44:08.355Z,4.17
2019-05-10T03:46:38.802Z,4.03
2019-05-10T03:49:09.264Z,4.27
2019-05-10T03:51:39.753Z,4.83
2019-05-10T03:54:13.533Z,4.93
2019-05-10T03:56:44.160Z,5.00
2019-05-10T03:59:14.762Z,4.70
2019-05-10T04:01:45.323Z,5.10
2019-05-10T04:04:15.806Z,4.83
2019-05-10T04:06:46.646Z,4.17
2019-05-10T04:09:17.087Z,4.80
2019-05-10T04:11:47.685Z,4.57
2019-05-10T04:14:18.175Z,4.97
2019-05-10T04:16:48.660Z,5.03
2019-05-10T04:19:19.142Z,4.23
2019-05-10T04:21:49.654Z,4.80
2019-05-10T04:24:20.154Z,4.60
2019-05-10T04:26:50.649Z,3.90
2019-05-10T04:29:21.176Z,4.23
2019-05-10T04:31:51.650Z,4.10
2019-05-10T04:34:22.164Z,4.17
2019-05-10T04:36:52.652Z,3.57
2019-05-10T04:39:23.125Z,3.93
2019-05-10T04:41:53.612Z,4.27
2019-05-10T04:44:24.270Z,13.23
2019-05-10T04:46:54.882Z,5.20
2019-05-10T04:49:25.387Z,4.50
2019-05-10T04:51:55.896Z,4.30
2019-05-10T04:54:26.453Z,4.43
2019-05-10T04:57:00.102Z,4.63
2019-05-10T04:59:29.443Z,4.23
2019-05-10T05:02:01.198Z,4.20
2019-05-10T05:04:31.803Z,4.13
2019-05-10T05:07:02.293Z,3.00
2019-05-10T05:09:32.824Z,2.87
2019-05-10T05:12:03.311Z,2.63
2019-05-10T05:14:33.775Z,2.23
2019-05-10T05:17:04.268Z,2.00
2019-05-10T05:19:34.850Z,2.20
2019-05-10T05:22:05.382Z,2.10
2019-05-10T05:24:35.826Z,1.97
2019-05-10T05:27:06.317Z,1.90
2019-05-10T05:29:37.219Z,1.80
2019-05-10T05:32:07.673Z,1.63
2019-05-10T05:34:38.097Z,1.97
2019-05-10T05:37:10.199Z,1.97
2019-05-10T05:39:40.680Z,2.03
2019-05-10T05:42:11.138Z,1.90
2019-05-10T05:44:41.605Z,1.93
2019-05-10T05:47:12.087Z,1.70
2019-05-10T05:49:42.781Z,2.00
2019-05-10T05:52:13.343Z,1.90
2019-05-10T05:54:43.778Z,1.70
2019-05-10T05:57:14.239Z,1.90
2019-05-10T05:59:44.687Z,1.70
2019-05-10T06:02:15.123Z,2.00
2019-05-10T06:04:46.376Z,1.87
2019-05-10T06:07:18.093Z,1.70
2019-05-10T06:09:48.863Z,1.70
2019-05-10T06:12:19.300Z,2.03
2019-05-10T06:14:52.205Z,1.60
2019-05-10T06:17:23.687Z,1.90
2019-05-10T06:19:53.988Z,1.93
2019-05-10T06:22:24.427Z,1.80
2019-05-10T06:24:54.863Z,1.80
2019-05-10T06:27:25.628Z,1.73
2019-05-10T06:29:56.091Z,1.50
2019-05-10T06:32:27.968Z,1.60
2019-05-10T06:34:58.679Z,1.33
2019-05-10T06:37:31.325Z,1.67
2019-05-10T06:40:01.500Z,1.80
2019-05-10T06:42:34.763Z,1.90
2019-05-10T06:45:14.448Z,1.70
2019-05-10T06:47:42.100Z,1.53
2019-05-10T06:50:12.759Z,1.40
2019-05-10T06:52:43.225Z,1.40
2019-05-10T06:55:13.726Z,1.60
2019-05-10T06:57:44.432Z,1.60
2019-05-10T07:00:15.686Z,1.60
2019-05-10T07:02:46.394Z,2.07
2019-05-10T07:05:16.831Z,1.60
2019-05-10T07:07:47.289Z,1.80
2019-05-10T07:10:19.747Z,1.57
2019-05-10T07:12:50.546Z,1.67
2019-05-10T07:15:21.399Z,1.60
2019-05-10T07:17:52.211Z,1.60
2019-05-10T07:20:23.837Z,1.50
2019-05-10T07:23:00.209Z,1.17
2019-05-10T07:25:27.029Z,1.47
2019-05-10T07:27:57.463Z,1.50
2019-05-10T07:30:36.962Z,1.53
2019-05-10T07:33:07.674Z,1.30
2019-05-10T07:35:38.784Z,1.70
2019-05-10T07:38:09.631Z,1.40
2019-05-10T07:40:40.340Z,1.47
2019-05-10T07:43:10.763Z,1.37
2019-05-10T07:45:41.469Z,1.53
2019-05-10T07:48:11.903Z,1.50
2019-05-10T07:50:49.060Z,1.40
2019-05-10T07:53:16.211Z,1.30
2019-05-10T07:55:47.006Z,1.20
2019-05-10T07:58:17.476Z,1.40
2019-05-10T08:00:48.171Z,1.53
2019-05-10T08:03:23.516Z,1.43
2019-05-10T08:05:55.881Z,1.30
2019-05-10T08:08:23.366Z,1.40
2019-05-10T08:10:53.799Z,1.60
2019-05-10T08:13:25.308Z,1.50
2019-05-10T08:15:56.366Z,1.10
2019-05-10T08:18:29.175Z,1.40
2019-05-10T08:21:02.472Z,1.50
2019-05-10T08:23:31.370Z,1.30
2019-05-10T08:26:04.520Z,1.43
2019-05-10T08:28:37.390Z,1.33
2019-05-10T08:31:06.211Z,1.63
2019-05-10T08:33:36.675Z,1.27
2019-05-10T08:36:07.659Z,1.40
2019-05-10T08:38:39.848Z,1.20
2019-05-10T08:41:14.879Z,1.50
2019-05-10T08:43:42.992Z,1.47
2019-05-10T08:46:13.629Z,1.50
2019-05-10T08:48:50.389Z,1.27
2019-05-10T08:51:16.814Z,1.27
2019-05-10T08:53:52.436Z,1.10
2019-05-10T08:56:21.580Z,1.40
2019-05-10T08:58:53.636Z,1.03
2019-05-10T09:01:29.466Z,1.10
2019-05-10T09:04:01.983Z,1.33
2019-05-10T09:06:28.319Z,1.40
2019-05-10T09:09:03.452Z,1.13
2019-05-10T09:11:32.790Z,1.23
2019-05-10T09:14:03.417Z,1.13
2019-05-10T09:16:39.419Z,1.17
2019-05-10T09:19:06.066Z,1.30
2019-05-10T09:21:41.201Z,1.30
2019-05-10T09:24:08.881Z,1.70
2019-05-10T09:26:41.856Z,1.47
2019-05-10T09:29:12.558Z,1.33
2019-05-10T09:31:48.607Z,1.77
2019-05-10T09:34:15.165Z,1.30
2019-05-10T09:36:47.176Z,1.40
2019-05-10T09:39:21.630Z,1.40
2019-05-10T09:41:52.479Z,1.40
2019-05-10T09:44:22.915Z,1.20
2019-05-10T09:46:53.748Z,1.50
2019-05-10T09:49:24.429Z,1.47
2019-05-10T09:51:55.151Z,1.50
2019-05-10T09:54:29.507Z,1.47
2019-05-10T09:56:57.948Z,1.80
2019-05-10T09:59:28.389Z,1.30
2019-05-10T10:01:59.086Z,1.37
2019-05-10T10:04:29.583Z,1.30
2019-05-10T10:07:00.011Z,1.20
2019-05-10T10:09:37.383Z,1.20
2019-05-10T10:12:03.316Z,1.40
2019-05-10T10:14:38.617Z,1.53
2019-05-10T10:17:08.132Z,1.60
2019-05-10T10:19:40.736Z,1.50
2019-05-10T10:22:11.516Z,1.30
2019-05-10T10:24:42.731Z,1.47
2019-05-10T10:27:13.156Z,1.43
2019-05-10T10:29:43.867Z,1.80
2019-05-10T10:32:14.336Z,1.63
2019-05-10T10:34:45.082Z,1.50
2019-05-10T10:37:20.671Z,1.57
2019-05-10T10:39:47.942Z,1.77
2019-05-10T10:42:18.642Z,1.73
2019-05-10T10:44:49.068Z,1.70
2019-05-10T10:47:22.933Z,1.47
2019-05-10T10:49:51.779Z,1.53
2019-05-10T10:52:22.208Z,1.50
2019-05-10T10:54:52.641Z,2.17
2019-05-10T10:57:23.062Z,1.67
2019-05-10T10:59:53.516Z,2.00
2019-05-10T11:02:32.421Z,1.30
2019-05-10T11:04:56.356Z,1.67
2019-05-10T11:07:26.790Z,1.67
2019-05-10T11:10:08.294Z,1.30
2019-05-10T11:12:30.729Z,1.70
2019-05-10T11:15:01.279Z,1.30
2019-05-10T11:17:31.689Z,1.57
2019-05-10T11:20:08.532Z,1.47
2019-05-10T11:22:42.004Z,1.52
2019-05-10T11:25:12.961Z,1.35
2019-05-10T11:27:47.517Z,1.40
2019-05-10T11:30:17.211Z,1.67
2019-05-10T11:32:47.638Z,1.77
2019-05-10T11:35:27.506Z,1.50
2019-05-10T11:37:50.921Z,1.50
2019-05-10T11:40:29.772Z,1.80
2019-05-10T11:42:53.705Z,1.70
2019-05-10T11:45:26.168Z,1.60
2019-05-10T11:47:59.065Z,1.87
2019-05-10T11:50:34.568Z,1.90
2019-05-10T11:53:01.092Z,1.70
2019-05-10T11:55:35.743Z,1.60
2019-05-10T11:58:08.710Z,1.47
2019-05-10T12:00:36.380Z,1.30
2019-05-10T12:06:05.304Z,1.07
2019-05-10T12:08:31.956Z,1.00
2019-05-10T12:11:10.969Z,0.87
2019-05-10T12:13:34.758Z,1.10
2019-05-10T12:16:05.335Z,0.90
2019-05-10T12:18:36.410Z,1.40
2019-05-10T12:21:09.579Z,0.80
2019-05-10T12:26:29.496Z,0.90
2019-05-10T12:26:36.002Z,1.10
2019-05-10T12:28:46.492Z,1.70
2019-05-10T12:31:17.213Z,1.20
2019-05-10T12:33:47.822Z,1.30
2019-05-10T12:36:23.646Z,1.20
2019-05-10T12:38:50.914Z,1.10
2019-05-10T12:41:23.475Z,1.40
2019-05-10T12:44:02.613Z,1.00
2019-05-10T12:46:26.454Z,1.37
2019-05-10T12:48:57.009Z,0.93
2019-05-10T12:51:27.782Z,0.77
2019-05-10T12:53:58.489Z,0.87
2019-05-10T12:56:35.019Z,0.90
2019-05-10T12:59:04.503Z,0.87
2019-05-10T13:01:35.339Z,1.00
2019-05-10T13:04:14.643Z,1.00
2019-05-10T13:06:43.962Z,1.50
2019-05-10T13:09:14.395Z,1.30
2019-05-10T13:11:46.453Z,1.33
2019-05-10T13:14:17.242Z,1.60
2019-05-10T13:16:47.720Z,1.40
2019-05-10T13:19:20.158Z,1.90
2019-05-10T13:21:53.666Z,1.70
2019-05-10T13:24:22.882Z,1.50
2019-05-10T13:26:55.348Z,1.63
2019-05-10T13:29:31.027Z,1.30
2019-05-10T13:32:01.429Z,1.53
2019-05-10T13:34:31.879Z,1.60
2019-05-10T13:37:02.338Z,1.93
2019-05-10T13:39:32.867Z,1.40
2019-05-10T13:42:05.143Z,1.80
2019-05-10T13:44:37.154Z,1.50
2019-05-10T13:47:10.094Z,1.75
2019-05-10T13:49:40.654Z,1.70
2019-05-10T13:52:11.359Z,1.50
2019-05-10T13:54:42.351Z,1.45
2019-05-10T13:57:12.761Z,1.93
2019-05-10T13:59:43.216Z,1.33
2019-05-10T14:02:13.967Z,1.57
2019-05-10T14:04:44.868Z,1.50
2019-05-10T14:07:17.435Z,1.60
2019-05-10T14:09:48.561Z,1.60
2019-05-10T14:12:23.205Z,1.27
2019-05-10T14:14:55.308Z,1.40
2019-05-10T14:17:23.795Z,1.67
2019-05-10T14:19:54.227Z,1.27
2019-05-10T14:22:24.744Z,1.33
2019-05-10T14:24:58.925Z,1.02
2019-05-10T14:27:35.411Z,1.37
2019-05-10T14:29:59.737Z,1.15
2019-05-10T14:32:30.868Z,1.37
2019-05-10T14:35:01.406Z,1.32
2019-05-10T14:37:32.448Z,1.50
2019-05-10T14:40:03.046Z,1.07
2019-05-10T14:42:34.323Z,1.30
2019-05-10T14:45:07.544Z,1.35
2019-05-10T14:47:46.850Z,1.40
2019-05-10T14:50:12.123Z,1.45
2019-05-10T14:52:42.869Z,1.23
2019-05-10T14:55:13.377Z,1.32
2019-05-10T14:57:44.500Z,1.12
2019-05-10T15:00:15.659Z,1.17
2019-05-10T15:02:46.204Z,1.72
2019-05-10T15:05:18.289Z,1.50
2019-05-10T15:07:51.088Z,1.17
2019-05-10T15:10:23.931Z,1.40
2019-05-10T15:12:55.043Z,1.15
2019-05-10T15:15:31.252Z,1.15
2019-05-10T15:18:01.981Z,1.20
2019-05-10T15:20:35.525Z,1.50
2019-05-10T15:23:05.009Z,1.25
2019-05-10T15:25:35.432Z,1.10
2019-05-10T15:28:05.886Z,1.30
2019-05-10T15:30:39.211Z,1.00
2019-05-10T15:33:08.906Z,1.17
2019-05-10T15:35:39.394Z,1.27
2019-05-10T15:38:09.879Z,1.40
2019-05-10T15:40:44.514Z,1.00
2019-05-10T15:43:16.834Z,1.05
2019-05-10T15:45:52.181Z,1.30
2019-05-10T15:48:18.425Z,1.30
2019-05-10T15:50:49.219Z,1.30
2019-05-10T15:53:25.562Z,1.07
2019-05-10T15:55:52.930Z,1.27
2019-05-10T15:58:23.942Z,1.55
2019-05-10T16:00:54.959Z,1.10
2019-05-10T16:03:25.457Z,1.10
2019-05-10T16:06:00.756Z,1.20
2019-05-10T16:08:30.397Z,1.10
2019-05-10T16:11:00.740Z,1.40
2019-05-10T16:13:31.162Z,1.27
2019-05-10T16:16:01.661Z,1.27
2019-05-10T16:18:33.494Z,1.53
2019-05-10T16:21:04.269Z,1.20
2019-05-10T16:23:34.832Z,1.60
2019-05-10T16:26:05.327Z,1.60
2019-05-10T16:28:35.758Z,1.50
2019-05-10T16:31:06.568Z,1.27
2019-05-10T16:33:36.994Z,1.20
2019-05-10T16:36:08.375Z,1.20
2019-05-10T16:38:38.942Z,1.30
2019-05-10T16:41:09.435Z,0.97
2019-05-10T16:43:39.890Z,1.13
2019-05-10T16:46:10.334Z,1.10
2019-05-10T16:48:40.773Z,1.20
2019-05-10T16:51:12.792Z,1.30
2019-05-10T16:53:45.678Z,1.40
2019-05-10T16:56:18.829Z,0.97
2019-05-10T16:58:52.617Z,1.40
2019-05-10T17:01:25.171Z,1.60
2019-05-10T17:03:59.677Z,1.50
2019-05-10T17:06:24.167Z,1.17
2019-05-10T17:08:54.617Z,1.70
2019-05-10T17:11:25.054Z,1.40
2019-05-10T17:13:55.805Z,1.50
2019-05-10T17:16:26.235Z,1.20
2019-05-10T17:18:56.960Z,1.13
2019-05-10T17:21:27.630Z,1.43
2019-05-10T17:23:58.088Z,1.40
2019-05-10T17:26:28.533Z,1.30
2019-05-10T17:28:58.989Z,1.53
2019-05-10T17:31:29.478Z,1.13
2019-05-10T17:33:59.945Z,1.40
2019-05-10T17:36:30.402Z,1.10
2019-05-10T17:39:01.111Z,1.20
2019-05-10T17:41:31.516Z,1.40
2019-05-10T17:44:02.005Z,1.50
2019-05-10T17:46:32.446Z,1.20
2019-05-10T17:49:02.877Z,1.33
2019-05-10T17:51:33.314Z,1.40
2019-05-10T17:54:04.789Z,1.50
2019-05-10T17:56:38.998Z,1.40
2019-05-10T17:59:12.112Z,1.37
2019-05-10T18:01:39.701Z,1.50
2019-05-10T18:04:10.534Z,1.30
2019-05-10T18:06:40.994Z,1.67
2019-05-10T18:09:11.453Z,1.13
2019-05-10T18:11:43.368Z,1.33
2019-05-10T18:14:17.833Z,1.33
2019-05-10T18:16:48.266Z,1.40
2019-05-10T18:19:24.211Z,1.30
2019-05-10T18:21:54.835Z,1.27
2019-05-10T18:24:23.866Z,1.40
2019-05-10T18:26:54.318Z,1.30
2019-05-10T18:29:24.807Z,1.60
2019-05-10T18:31:58.244Z,1.50
2019-05-10T18:34:32.890Z,1.60
2019-05-10T18:37:00.425Z,1.50
2019-05-10T18:39:31.006Z,1.60
2019-05-10T18:42:01.773Z,1.40
2019-05-10T18:44:32.471Z,1.47
2019-05-10T18:47:02.939Z,1.83
2019-05-10T18:49:33.625Z,1.70
2019-05-10T18:52:06.624Z,1.80
2019-05-10T18:54:38.468Z,1.80
2019-05-10T18:57:12.288Z,1.90
2019-05-10T18:59:45.299Z,2.00
2019-05-10T19:02:17.721Z,2.30
2019-05-10T19:04:51.839Z,2.00
2019-05-10T19:07:20.396Z,1.90
2019-05-10T19:09:50.872Z,2.30
2019-05-10T19:12:23.035Z,2.70
2019-05-10T19:14:53.809Z,6.00
2019-05-10T19:17:24.618Z,10.87
2019-05-10T19:19:55.427Z,8.37
2019-05-10T19:22:26.002Z,2.43
2019-05-10T19:24:57.176Z,3.23
2019-05-10T19:27:27.734Z,2.87
2019-05-10T19:29:58.266Z,2.10
2019-05-10T19:32:28.869Z,2.17
2019-05-10T19:34:59.825Z,2.10
2019-05-10T19:37:34.387Z,2.10
2019-05-10T19:40:03.679Z,2.53
2019-05-10T19:42:37.083Z,2.00
2019-05-10T19:45:19.673Z,2.03
2019-05-10T19:47:55.624Z,2.20
2019-05-10T19:50:30.313Z,2.10
2019-05-10T19:52:58.379Z,2.10
2019-05-10T19:55:30.216Z,1.83
2019-05-10T19:58:00.674Z,1.60
2019-05-10T20:00:32.111Z,2.10
2019-05-10T20:03:04.451Z,2.10
2019-05-10T20:05:35.233Z,1.60
2019-05-10T20:08:05.856Z,2.10
2019-05-10T20:10:37.003Z,2.57
2019-05-10T20:13:07.444Z,1.70
2019-05-10T20:15:38.232Z,2.00
2019-05-10T20:18:08.982Z,2.10
2019-05-10T20:20:39.413Z,1.70
2019-05-10T20:23:10.145Z,1.90
2019-05-10T20:25:40.885Z,1.60
2019-05-10T20:28:11.614Z,1.70
2019-05-10T20:30:42.392Z,2.07
2019-05-10T20:33:12.931Z,2.00
2019-05-10T20:35:43.698Z,2.40
2019-05-10T20:38:14.196Z,2.70
2019-05-10T20:40:44.999Z,2.60
2019-05-10T20:43:15.720Z,2.70
2019-05-10T20:45:46.145Z,3.20
2019-05-10T20:48:16.639Z,3.70
2019-05-10T20:50:47.033Z,3.83
2019-05-10T20:53:17.455Z,2.83
2019-05-10T20:55:48.239Z,3.27
2019-05-10T20:58:18.704Z,3.63
2019-05-10T21:00:49.263Z,3.07
2019-05-10T21:03:20.457Z,3.30
2019-05-10T21:05:50.907Z,2.80
2019-05-10T21:08:21.486Z,3.00
2019-05-10T21:10:52.027Z,2.50
2019-05-10T21:13:22.768Z,2.50
2019-05-10T21:15:53.190Z,2.63
2019-05-10T21:18:23.746Z,2.60
2019-05-10T21:20:54.190Z,2.27
2019-05-10T21:23:24.852Z,2.20
2019-05-10T21:25:55.613Z,2.30
2019-05-10T21:28:26.444Z,2.40
2019-05-10T21:30:57.238Z,2.20
2019-05-10T21:33:27.920Z,2.33
2019-05-10T21:35:58.686Z,2.63
2019-05-10T21:38:33.207Z,2.53
2019-05-10T21:41:01.601Z,2.60
2019-05-10T21:43:32.346Z,2.43
2019-05-10T21:46:02.852Z,2.70
2019-05-10T21:48:33.656Z,2.83
2019-05-10T21:51:04.193Z,2.40
2019-05-10T21:53:34.911Z,2.93
2019-05-10T21:56:05.565Z,3.63
2019-05-10T21:58:36.350Z,3.00
2019-05-10T22:01:07.519Z,3.33
2019-05-10T22:03:38.196Z,3.50
2019-05-10T22:06:10.512Z,3.50
2019-05-10T22:08:49.584Z,3.90
2019-05-10T22:11:13.521Z,4.23
2019-05-10T22:13:44.346Z,4.43
2019-05-10T22:16:14.881Z,5.33
2019-05-10T22:18:45.639Z,5.47
2019-05-10T22:21:16.460Z,6.03
2019-05-10T22:23:47.293Z,4.73
2019-05-10T22:26:18.014Z,5.83
2019-05-10T22:28:48.484Z,5.87
2019-05-10T22:31:19.180Z,6.30
2019-05-10T22:33:49.691Z,5.10
2019-05-10T22:36:20.266Z,4.73
2019-05-10T22:39:05.952Z,6.10
2019-05-10T22:41:23.060Z,5.80
2019-05-10T22:43:53.827Z,6.00
2019-05-10T22:46:24.652Z,6.67
2019-05-10T22:48:55.217Z,6.37
2019-05-10T22:51:26.240Z,6.67
2019-05-10T22:54:00.083Z,7.10
2019-05-10T22:56:29.091Z,6.80
2019-05-10T22:58:59.635Z,7.33
2019-05-10T23:01:30.213Z,7.80
2019-05-10T23:04:00.781Z,7.80
2019-05-10T23:06:31.758Z,7.37
2019-05-10T23:09:04.946Z,7.47
2019-05-10T23:11:37.244Z,7.43
2019-05-10T23:14:08.341Z,8.57
2019-05-10T23:16:40.373Z,7.97
2019-05-10T23:19:10.927Z,6.47
2019-05-10T23:21:41.728Z,7.37
2019-05-10T23:24:14.308Z,6.77
2019-05-10T23:26:45.506Z,7.10
2019-05-10T23:29:16.162Z,7.70
2019-05-10T23:31:46.737Z,7.93
2019-05-10T23:34:17.785Z,8.77
2019-05-10T23:36:48.651Z,8.90
2019-05-10T23:39:19.529Z,10.23
2019-05-10T23:41:50.223Z,9.23
2019-05-10T23:44:21.197Z,9.87
2019-05-10T23:46:52.082Z,9.27
2019-05-10T23:49:24.324Z,9.23
2019-05-10T23:51:55.248Z,8.00
2019-05-10T23:54:25.756Z,7.83
2019-05-10T23:56:56.698Z,7.50
2019-05-10T23:59:27.504Z,7.87
